Time;durP1;ratioP1;P1;durP2;ratioP2;P2;SDS_P1;SDS_P2;PMS_P1;PMS_P2;Temp;Humidity;BMP_temperature;BMP_pressure;BME280_temperature;BME280_humidity;BME280_pressure;Samples;Min_cycle;Max_cycle;Signal;HPM_P1;HPM_P2
2023/03/25 00:01:31;;;;;;;1.17;1.10;;;12.10;99.90;;;;;;5095214;28;20535;-77
2023/03/25 00:04:03;;;;;;;0.80;0.80;;;12.10;99.90;;;;;;5096731;28;20167;-78
2023/03/25 00:06:29;;;;;;;1.00;1.00;;;12.20;99.90;;;;;;5094508;28;20176;-78
2023/03/25 00:08:55;;;;;;;0.80;0.80;;;12.30;99.90;;;;;;5094625;28;20263;-78
2023/03/25 00:11:22;;;;;;;1.17;1.17;;;12.30;99.90;;;;;;5094696;28;20166;-77
2023/03/25 00:13:48;;;;;;;0.67;0.67;;;12.30;99.90;;;;;;5094963;28;20581;-76
2023/03/25 00:16:15;;;;;;;0.80;0.80;;;12.40;99.90;;;;;;5102457;28;20592;-78
2023/03/25 00:18:41;;;;;;;1.03;0.80;;;12.40;99.90;;;;;;5106991;28;20202;-77
2023/03/25 00:21:10;;;;;;;0.80;0.80;;;12.50;99.90;;;;;;5108618;28;20163;-77
2023/03/25 00:23:37;;;;;;;0.97;0.90;;;12.50;99.90;;;;;;5097443;28;20569;-76
2023/03/25 00:26:04;;;;;;;1.00;1.00;;;12.40;99.90;;;;;;5076986;28;20184;-78
2023/03/25 00:28:32;;;;;;;0.97;0.97;;;12.40;99.90;;;;;;5075139;28;20212;-79
2023/03/25 00:31:00;;;;;;;0.90;0.90;;;12.40;99.90;;;;;;5074415;28;20175;-78
2023/03/25 00:33:27;;;;;;;1.10;1.10;;;12.40;99.90;;;;;;5056129;28;20170;-79
2023/03/25 00:35:57;;;;;;;1.10;1.10;;;12.30;99.90;;;;;;5073773;28;20202;-79
2023/03/25 00:38:32;;;;;;;1.20;1.20;;;12.30;99.90;;;;;;5073884;28;20302;-78
2023/03/25 00:40:58;;;;;;;1.10;1.10;;;12.30;99.90;;;;;;5074158;28;20664;-79
2023/03/25 00:43:24;;;;;;;1.17;1.10;;;12.40;99.90;;;;;;5073968;28;20273;-78
2023/03/25 00:45:55;;;;;;;0.90;0.90;;;12.40;99.90;;;;;;5073691;28;20627;-79
2023/03/25 00:48:21;;;;;;;1.10;1.10;;;12.40;99.90;;;;;;5073685;28;20697;-77
2023/03/25 00:50:47;;;;;;;0.80;0.80;;;12.40;99.90;;;;;;5073844;28;20174;-77
2023/03/25 00:53:13;;;;;;;1.10;1.10;;;12.40;99.90;;;;;;5055609;28;20186;-80
2023/03/25 00:55:40;;;;;;;1.03;1.03;;;12.40;99.90;;;;;;5073649;28;20171;-78
2023/03/25 00:58:06;;;;;;;1.20;1.20;;;12.30;99.90;;;;;;5073522;28;20761;-78
2023/03/25 01:00:31;;;;;;;1.03;0.90;;;12.20;99.90;;;;;;5072537;28;20167;-78
2023/03/25 01:02:57;;;;;;;1.20;1.20;;;12.20;99.90;;;;;;5073613;28;20179;-79
2023/03/25 01:05:23;;;;;;;0.93;0.93;;;12.20;99.90;;;;;;5074126;28;20526;-78
2023/03/25 01:07:50;;;;;;;0.90;0.90;;;12.30;99.90;;;;;;5073363;28;20759;-79
2023/03/25 01:10:16;;;;;;;1.17;1.07;;;12.20;99.90;;;;;;5076390;28;20167;-77
2023/03/25 01:12:42;;;;;;;0.97;0.97;;;12.20;99.90;;;;;;5073563;28;20167;-78
2023/03/25 01:15:09;;;;;;;0.80;0.80;;;12.20;99.90;;;;;;5072860;28;20171;-78
2023/03/25 01:17:35;;;;;;;1.03;1.03;;;12.20;99.90;;;;;;5073473;28;20171;-78
2023/03/25 01:20:01;;;;;;;0.77;0.77;;;12.30;99.90;;;;;;5073067;28;20518;-77
2023/03/25 01:22:27;;;;;;;0.90;0.90;;;12.20;99.90;;;;;;5073074;28;20170;-78
2023/03/25 01:24:52;;;;;;;0.97;0.97;;;12.20;99.90;;;;;;5072940;28;20178;-79
2023/03/25 01:27:18;;;;;;;3.00;0.87;;;12.20;99.90;;;;;;5073117;28;20171;-79
2023/03/25 01:29:44;;;;;;;1.27;1.10;;;12.10;99.90;;;;;;5072576;28;20175;-76
2023/03/25 01:32:10;;;;;;;0.97;0.73;;;12.10;99.90;;;;;;5072943;28;20182;-78
2023/03/25 01:34:37;;;;;;;0.77;0.77;;;12.10;99.90;;;;;;5073065;28;20174;-78
2023/03/25 01:37:03;;;;;;;0.70;0.70;;;12.10;99.90;;;;;;5072924;28;20181;-78
2023/03/25 01:39:29;;;;;;;0.90;0.90;;;12.00;99.90;;;;;;5075195;28;20209;-78
2023/03/25 01:41:55;;;;;;;1.20;1.10;;;12.00;99.90;;;;;;5055895;28;20189;-79
2023/03/25 01:44:20;;;;;;;0.77;0.70;;;12.00;99.90;;;;;;5072583;28;20669;-76
2023/03/25 01:46:48;;;;;;;0.80;0.80;;;12.00;99.90;;;;;;5072532;28;20205;-77
2023/03/25 01:49:28;;;;;;;0.80;0.80;;;12.00;99.90;;;;;;5072321;28;20172;-80
2023/03/25 01:52:00;;;;;;;0.57;0.57;;;12.00;99.90;;;;;;5072690;28;20618;-78
2023/03/25 01:54:26;;;;;;;0.80;0.80;;;11.90;99.90;;;;;;5072305;28;20161;-79
2023/03/25 01:56:53;;;;;;;0.67;0.67;;;12.00;99.90;;;;;;5072481;28;20179;-78
2023/03/25 01:59:24;;;;;;;0.60;0.60;;;12.00;99.90;;;;;;5072368;28;20210;-78
2023/03/25 02:01:52;;;;;;;0.77;0.77;;;11.90;99.90;;;;;;5072471;28;20673;-78
2023/03/25 02:04:37;;;;;;;1.03;0.73;;;11.90;99.90;;;;;;5054381;28;20634;-79
2023/03/25 02:07:06;;;;;;;0.70;0.70;;;11.80;99.90;;;;;;5072538;28;20165;-77
2023/03/25 02:09:32;;;;;;;0.73;0.70;;;11.90;99.90;;;;;;5073238;28;20175;-77
2023/03/25 02:11:57;;;;;;;0.70;0.70;;;11.80;99.90;;;;;;5073445;28;20272;-77
2023/03/25 02:14:29;;;;;;;0.80;0.80;;;11.80;99.90;;;;;;5084939;28;20168;-78
2023/03/25 02:17:32;;;;;;;0.83;0.83;;;11.90;99.90;;;;;;5086733;28;20198;-77
2023/03/25 02:20:07;;;;;;;0.77;0.77;;;11.90;99.90;;;;;;5076558;28;20259;-77
2023/03/25 02:22:57;;;;;;;0.70;0.70;;;11.80;99.90;;;;;;5073149;28;20183;-78
2023/03/25 02:25:39;;;;;;;0.83;0.70;;;11.80;99.90;;;;;;5072584;28;20246;-77
2023/03/25 02:28:09;;;;;;;0.80;0.80;;;11.80;99.90;;;;;;5072263;28;20193;-77
2023/03/25 02:30:47;;;;;;;1.00;1.00;;;11.80;99.90;;;;;;5071817;28;20187;-77
2023/03/25 02:33:41;;;;;;;0.87;0.87;;;11.80;99.90;;;;;;5072096;28;20167;-78
2023/03/25 02:36:41;;;;;;;1.17;1.07;;;11.80;99.90;;;;;;5071513;28;20169;-76
2023/03/25 02:39:12;;;;;;;0.63;0.60;;;11.80;99.90;;;;;;5071729;28;20227;-77
2023/03/25 02:41:40;;;;;;;0.70;0.70;;;11.80;99.90;;;;;;5071998;28;20258;-77
2023/03/25 02:44:16;;;;;;;0.70;0.70;;;11.80;99.90;;;;;;5071927;28;20178;-77
2023/03/25 02:46:51;;;;;;;0.53;0.53;;;11.70;99.90;;;;;;5072007;28;20160;-77
2023/03/25 02:49:26;;;;;;;0.53;0.50;;;11.80;99.90;;;;;;5071822;28;20161;-78
2023/03/25 02:52:15;;;;;;;0.53;0.53;;;11.80;99.90;;;;;;5053979;28;20187;-78
2023/03/25 02:54:43;;;;;;;0.83;0.60;;;11.80;99.90;;;;;;5072435;28;20158;-77
2023/03/25 02:57:14;;;;;;;0.57;0.57;;;11.80;99.90;;;;;;5072432;28;20959;-79
2023/03/25 02:59:40;;;;;;;0.60;0.60;;;11.80;99.90;;;;;;5053294;28;20381;-76
2023/03/25 03:02:08;;;;;;;0.70;0.70;;;11.80;99.90;;;;;;5053743;28;20178;-77
2023/03/25 03:04:53;;;;;;;0.80;0.80;;;11.80;99.90;;;;;;5071999;28;20384;-77
2023/03/25 03:07:39;;;;;;;0.70;0.70;;;11.80;99.90;;;;;;5053841;28;20182;-77
2023/03/25 03:10:21;;;;;;;1.57;1.00;;;11.80;99.90;;;;;;5071541;28;20202;-77
2023/03/25 03:13:19;;;;;;;1.03;1.03;;;11.70;99.90;;;;;;5071828;28;20163;-77
2023/03/25 03:16:08;;;;;;;0.97;0.97;;;11.80;99.90;;;;;;5066717;28;20652;-77
2023/03/25 03:19:07;;;;;;;0.90;0.90;;;11.70;99.90;;;;;;5071644;28;20294;-79
2023/03/25 03:21:39;;;;;;;1.13;1.10;;;11.80;99.90;;;;;;5072586;28;20167;-77
2023/03/25 03:24:10;;;;;;;0.80;0.80;;;11.70;99.90;;;;;;5073147;28;20181;-77
2023/03/25 03:26:58;;;;;;;1.00;1.00;;;11.70;99.90;;;;;;5075390;28;20163;-77
2023/03/25 03:29:48;;;;;;;0.90;0.90;;;11.60;99.90;;;;;;5074971;28;20246;-77
2023/03/25 03:32:31;;;;;;;1.10;0.90;;;11.60;99.90;;;;;;5075342;28;20221;-77
2023/03/25 03:35:15;;;;;;;1.00;0.90;;;11.60;99.90;;;;;;5074889;28;20170;-78
2023/03/25 03:37:47;;;;;;;1.53;1.10;;;11.60;99.90;;;;;;5074941;28;20168;-77
2023/03/25 03:40:17;;;;;;;1.00;1.00;;;11.50;99.90;;;;;;5075015;28;20167;-78
2023/03/25 03:42:51;;;;;;;1.37;1.20;;;11.50;99.90;;;;;;5075069;28;20160;-80
2023/03/25 03:45:32;;;;;;;1.63;1.20;;;11.60;99.90;;;;;;5074756;28;20632;-78
2023/03/25 03:48:01;;;;;;;0.93;0.93;;;11.60;99.90;;;;;;5074956;28;20159;-80
2023/03/25 03:50:36;;;;;;;1.17;1.17;;;11.70;99.90;;;;;;5074600;28;20204;-77
2023/03/25 03:53:19;;;;;;;1.13;1.13;;;11.70;99.90;;;;;;5075053;28;20195;-78
2023/03/25 03:56:00;;;;;;;0.97;0.97;;;11.60;99.90;;;;;;5074796;28;20246;-77
2023/03/25 03:58:37;;;;;;;1.00;1.00;;;11.70;99.90;;;;;;5075155;28;20212;-78
2023/03/25 04:01:08;;;;;;;1.20;1.10;;;11.60;99.90;;;;;;5075288;28;20163;-80
2023/03/25 04:03:52;;;;;;;1.30;1.20;;;11.60;99.90;;;;;;5058315;28;20270;-78
2023/03/25 04:06:37;;;;;;;1.17;1.17;;;11.70;99.90;;;;;;5080336;28;20499;-79
2023/03/25 04:09:25;;;;;;;1.33;1.33;;;11.70;99.90;;;;;;5086157;28;20258;-78
2023/03/25 04:12:02;;;;;;;1.00;1.00;;;11.70;99.90;;;;;;5086754;28;20176;-78
2023/03/25 04:14:27;;;;;;;1.17;1.07;;;11.70;99.90;;;;;;5098160;28;20281;-76
2023/03/25 04:16:54;;;;;;;1.20;1.20;;;11.60;99.90;;;;;;5095040;28;20180;-78
2023/03/25 04:19:20;;;;;;;1.40;1.30;;;11.50;99.90;;;;;;5094590;28;20344;-77
2023/03/25 04:21:49;;;;;;;1.40;1.30;;;11.50;99.90;;;;;;5094645;28;20252;-77
2023/03/25 04:24:15;;;;;;;1.47;1.33;;;11.50;99.90;;;;;;5094793;28;20183;-78
2023/03/25 04:26:42;;;;;;;1.10;1.10;;;11.60;99.90;;;;;;5096974;28;20163;-77
2023/03/25 04:29:08;;;;;;;0.97;0.97;;;11.60;99.90;;;;;;5095792;28;20167;-78
2023/03/25 04:31:34;;;;;;;1.40;1.30;;;11.50;99.90;;;;;;5094248;28;20212;-78
2023/03/25 04:34:03;;;;;;;1.40;1.30;;;11.50;99.90;;;;;;5076196;28;20642;-77
2023/03/25 04:36:36;;;;;;;1.13;1.00;;;11.60;99.90;;;;;;5093883;28;20167;-78
2023/03/25 04:39:03;;;;;;;1.20;1.20;;;11.60;99.90;;;;;;5095293;28;20236;-79
2023/03/25 04:41:28;;;;;;;1.80;1.20;;;11.60;99.90;;;;;;5096782;28;20186;-77
2023/03/25 04:43:54;;;;;;;1.03;1.03;;;11.60;99.90;;;;;;5094267;28;20195;-77
2023/03/25 04:46:20;;;;;;;1.50;1.33;;;11.60;99.90;;;;;;5093888;28;20750;-77
2023/03/25 04:48:46;;;;;;;1.13;1.13;;;11.50;99.90;;;;;;5094149;28;20190;-79
2023/03/25 04:51:13;;;;;;;2.10;1.27;;;11.50;99.90;;;;;;5094222;28;20172;-78
2023/03/25 04:53:40;;;;;;;1.40;1.30;;;11.60;99.90;;;;;;5094188;28;20176;-80
2023/03/25 04:56:14;;;;;;;1.20;1.20;;;11.60;99.90;;;;;;5093698;28;20243;-79
2023/03/25 04:58:41;;;;;;;1.40;1.40;;;11.60;99.90;;;;;;5094437;28;20205;-78
2023/03/25 05:01:15;;;;;;;1.27;1.27;;;11.50;99.90;;;;;;5095004;28;20211;-80
2023/03/25 05:03:41;;;;;;;1.47;1.37;;;11.50;99.90;;;;;;5076930;28;20169;-79
2023/03/25 05:06:07;;;;;;;1.33;1.33;;;11.50;99.90;;;;;;5093841;28;20708;-76
2023/03/25 05:08:33;;;;;;;1.30;1.30;;;11.60;99.90;;;;;;5093818;28;20538;-77
2023/03/25 05:10:59;;;;;;;1.77;1.50;;;11.60;99.90;;;;;;5093767;28;20519;-77
2023/03/25 05:13:24;;;;;;;2.30;1.50;;;11.50;99.90;;;;;;5093521;28;20194;-79
2023/03/25 05:15:50;;;;;;;1.57;1.30;;;11.50;99.90;;;;;;5093574;28;20178;-78
2023/03/25 05:18:16;;;;;;;1.10;1.10;;;11.50;99.90;;;;;;5093639;28;20229;-79
2023/03/25 05:20:45;;;;;;;1.43;1.33;;;11.50;99.90;;;;;;5093706;28;20522;-77
2023/03/25 05:23:16;;;;;;;1.27;1.27;;;11.60;99.90;;;;;;5075059;28;20185;-77
2023/03/25 05:25:43;;;;;;;1.40;1.40;;;11.50;99.90;;;;;;5093391;28;20204;-76
2023/03/25 05:28:12;;;;;;;1.20;1.20;;;11.50;99.90;;;;;;5093450;28;20617;-78
2023/03/25 05:30:44;;;;;;;1.30;1.30;;;11.70;99.90;;;;;;5096653;28;20189;-78
2023/03/25 05:33:14;;;;;;;1.30;1.30;;;11.60;99.90;;;;;;5093005;28;20176;-78
2023/03/25 05:35:40;;;;;;;1.00;1.00;;;11.60;99.90;;;;;;5093045;28;20175;-79
2023/03/25 05:38:11;;;;;;;1.40;1.40;;;11.70;99.90;;;;;;5093150;28;20727;-78
2023/03/25 05:40:38;;;;;;;2.07;1.97;;;11.70;99.90;;;;;;5093179;28;20178;-79
2023/03/25 05:43:05;;;;;;;2.10;1.80;;;11.60;99.90;;;;;;5093164;28;20183;-81
2023/03/25 05:45:34;;;;;;;6.17;3.03;;;11.60;99.90;;;;;;5092920;28;20291;-79
2023/03/25 05:48:00;;;;;;;4.20;2.57;;;11.70;99.90;;;;;;5092611;28;20660;-78
2023/03/25 05:50:27;;;;;;;2.97;2.00;;;11.70;99.90;;;;;;5093067;28;20661;-80
2023/03/25 05:52:54;;;;;;;1.50;1.50;;;11.70;99.90;;;;;;5092991;28;20179;-78
2023/03/25 05:55:21;;;;;;;1.40;1.40;;;11.80;99.90;;;;;;5094241;28;20185;-79
2023/03/25 05:57:47;;;;;;;1.40;1.40;;;11.70;99.90;;;;;;5094920;28;20620;-80
2023/03/25 06:00:14;;;;;;;1.60;1.47;;;11.70;99.90;;;;;;5105968;28;20187;-79
2023/03/25 06:02:41;;;;;;;1.33;1.33;;;11.80;99.90;;;;;;5107926;28;20170;-79
2023/03/25 06:05:12;;;;;;;1.70;1.60;;;11.90;99.90;;;;;;5099501;28;20657;-78
2023/03/25 06:07:41;;;;;;;1.30;1.30;;;12.00;99.90;;;;;;5094028;28;20213;-77
2023/03/25 06:10:09;;;;;;;1.47;1.47;;;12.00;99.90;;;;;;5093312;28;20260;-79
2023/03/25 06:12:37;;;;;;;1.50;1.50;;;12.00;99.90;;;;;;5092829;28;20178;-78
2023/03/25 06:15:08;;;;;;;1.90;1.80;;;11.90;99.90;;;;;;5092374;28;20172;-79
2023/03/25 06:17:37;;;;;;;1.90;1.80;;;11.90;99.90;;;;;;5092516;28;20263;-78
2023/03/25 06:20:11;;;;;;;1.60;1.60;;;11.80;99.90;;;;;;5092555;28;20193;-78
2023/03/25 06:22:42;;;;;;;2.30;2.10;;;11.80;99.90;;;;;;5093120;28;20568;-78
2023/03/25 06:25:09;;;;;;;2.30;2.20;;;11.80;99.90;;;;;;5075185;28;20286;-78
2023/03/25 06:27:39;;;;;;;2.73;2.03;;;11.70;99.90;;;;;;5094681;28;20201;-79
2023/03/25 06:30:09;;;;;;;1.93;1.83;;;11.70;99.90;;;;;;5092848;28;20276;-80
2023/03/25 06:32:36;;;;;;;5.73;2.97;;;11.70;99.90;;;;;;5092966;28;20166;-75
2023/03/25 06:35:03;;;;;;;3.33;2.33;;;11.80;99.90;;;;;;5092616;28;20177;-78
2023/03/25 06:37:29;;;;;;;2.30;2.20;;;11.80;99.90;;;;;;5092959;28;20182;-78
2023/03/25 06:39:55;;;;;;;2.57;2.37;;;11.80;99.90;;;;;;5093265;28;20217;-78
2023/03/25 06:42:22;;;;;;;2.10;2.00;;;12.00;99.90;;;;;;5094198;28;20190;-79
2023/03/25 06:44:49;;;;;;;1.73;1.63;;;11.90;99.90;;;;;;5092423;28;20223;-78
2023/03/25 06:47:15;;;;;;;1.77;1.73;;;12.00;99.90;;;;;;5092483;28;20556;-79
2023/03/25 06:49:40;;;;;;;2.10;2.00;;;12.10;99.90;;;;;;5092121;28;20181;-79
2023/03/25 06:52:06;;;;;;;1.53;1.53;;;12.20;99.90;;;;;;5092172;28;20184;-79
2023/03/25 06:54:32;;;;;;;2.20;2.10;;;12.30;99.90;;;;;;5092106;28;20186;-78
2023/03/25 06:56:58;;;;;;;2.00;1.90;;;12.40;99.90;;;;;;5091910;28;20170;-79
2023/03/25 06:59:24;;;;;;;1.87;1.77;;;12.40;99.90;;;;;;5095949;28;20213;-78
2023/03/25 07:01:50;;;;;;;2.83;2.67;;;12.50;99.90;;;;;;5096309;28;20192;-80
2023/03/25 07:04:15;;;;;;;3.97;3.50;;;12.50;99.90;;;;;;5096042;28;20276;-79
2023/03/25 07:06:41;;;;;;;2.90;2.70;;;12.50;99.90;;;;;;5095999;28;20167;-77
2023/03/25 07:09:07;;;;;;;2.47;2.37;;;12.50;99.90;;;;;;5096357;28;20641;-79
2023/03/25 07:11:33;;;;;;;3.00;2.80;;;12.60;99.90;;;;;;5078108;28;20573;-81
2023/03/25 07:13:59;;;;;;;3.80;2.63;;;12.60;99.90;;;;;;5095776;28;20672;-79
2023/03/25 07:16:25;;;;;;;2.57;2.47;;;12.60;99.90;;;;;;5077426;28;20541;-80
2023/03/25 07:18:52;;;;;;;2.40;2.30;;;12.60;99.90;;;;;;5095951;28;20210;-79
2023/03/25 07:21:18;;;;;;;2.73;2.60;;;12.60;99.90;;;;;;5095885;28;20200;-79
2023/03/25 07:23:44;;;;;;;2.97;2.77;;;12.60;99.90;;;;;;5081956;28;20183;-77
2023/03/25 07:26:10;;;;;;;2.93;2.30;;;12.60;99.90;;;;;;5075348;28;20175;-78
2023/03/25 07:28:36;;;;;;;2.63;2.47;;;12.70;99.90;;;;;;5075566;28;20167;-79
2023/03/25 07:31:08;;;;;;;2.30;2.20;;;12.60;99.90;;;;;;5075756;28;20209;-78
2023/03/25 07:33:35;;;;;;;3.00;2.80;;;12.70;99.90;;;;;;5085943;28;20514;-80
2023/03/25 07:36:01;;;;;;;2.70;2.60;;;12.70;99.90;;;;;;5075803;28;20210;-77
2023/03/25 07:38:27;;;;;;;2.70;2.60;;;12.80;99.90;;;;;;5076288;28;20252;-79
2023/03/25 07:40:52;;;;;;;3.13;2.93;;;12.80;99.90;;;;;;5075874;28;20179;-78
2023/03/25 07:43:18;;;;;;;2.60;2.50;;;13.00;99.90;;;;;;5075616;28;20647;-80
2023/03/25 07:45:44;;;;;;;2.90;2.80;;;13.20;99.90;;;;;;5075561;28;20698;-78
2023/03/25 07:48:13;;;;;;;2.80;2.60;;;13.40;99.90;;;;;;5075449;28;20591;-77
2023/03/25 07:50:39;;;;;;;3.00;2.70;;;13.50;99.90;;;;;;5075698;28;20164;-78
2023/03/25 07:53:05;;;;;;;3.30;3.00;;;13.80;99.90;;;;;;5077722;28;20182;-78
2023/03/25 07:55:31;;;;;;;3.07;2.87;;;13.90;99.90;;;;;;5079750;28;20186;-78
2023/03/25 07:57:59;;;;;;;2.90;2.70;;;14.00;99.90;;;;;;5087160;28;20236;-78
2023/03/25 08:00:25;;;;;;;3.07;2.87;;;14.20;99.90;;;;;;5080320;28;20187;-79
2023/03/25 08:02:51;;;;;;;3.23;2.90;;;14.30;99.90;;;;;;5076082;28;20175;-77
2023/03/25 08:05:20;;;;;;;3.07;2.73;;;14.40;99.90;;;;;;5075130;28;20662;-77
2023/03/25 08:07:49;;;;;;;2.80;2.60;;;14.50;99.90;;;;;;5074688;28;20631;-76
2023/03/25 08:10:16;;;;;;;2.50;2.30;;;14.60;99.90;;;;;;5076370;28;20560;-79
2023/03/25 08:12:43;;;;;;;2.77;2.57;;;14.60;99.90;;;;;;5074364;28;20179;-78
2023/03/25 08:15:10;;;;;;;2.73;2.63;;;14.60;99.90;;;;;;5073936;28;20542;-78
2023/03/25 08:17:36;;;;;;;2.90;2.80;;;14.70;99.90;;;;;;5074436;28;20263;-76
2023/03/25 08:20:04;;;;;;;2.80;2.60;;;15.00;99.90;;;;;;5074627;28;20207;-77
2023/03/25 08:22:31;;;;;;;2.97;2.77;;;15.20;99.90;;;;;;5075878;28;20238;-78
2023/03/25 08:24:56;;;;;;;3.00;2.73;;;15.20;99.90;;;;;;5078179;28;20180;-78
2023/03/25 08:27:23;;;;;;;2.70;2.60;;;15.10;99.90;;;;;;5075199;28;20538;-77
2023/03/25 08:29:53;;;;;;;2.70;2.60;;;15.00;99.90;;;;;;5074285;28;20529;-78
2023/03/25 08:32:23;;;;;;;3.10;2.90;;;14.80;99.90;;;;;;5074134;28;20166;-77
2023/03/25 08:34:49;;;;;;;3.53;2.67;;;14.70;99.90;;;;;;5074374;28;20178;-80
2023/03/25 08:37:15;;;;;;;3.10;2.77;;;14.50;99.90;;;;;;5073807;28;20182;-79
2023/03/25 08:39:43;;;;;;;2.80;2.70;;;14.40;99.90;;;;;;5073930;28;20233;-79
2023/03/25 08:42:11;;;;;;;2.77;2.67;;;14.20;99.90;;;;;;5078114;28;20209;-81
2023/03/25 08:44:38;;;;;;;3.10;2.90;;;14.10;99.90;;;;;;5087683;28;20707;-79
2023/03/25 08:47:04;;;;;;;2.77;2.57;;;14.00;99.90;;;;;;5073661;28;20534;-77
2023/03/25 08:49:30;;;;;;;2.50;2.30;;;13.80;99.90;;;;;;5073626;28;20510;-79
2023/03/25 08:51:57;;;;;;;2.40;1.87;;;13.70;99.90;;;;;;5073833;28;20264;-78
2023/03/25 08:54:24;;;;;;;2.13;2.03;;;13.60;99.90;;;;;;5073733;28;20273;-79
2023/03/25 08:56:51;;;;;;;2.30;2.20;;;13.40;99.90;;;;;;5073426;28;20163;-80
2023/03/25 08:59:17;;;;;;;2.23;2.03;;;13.30;99.90;;;;;;5073422;28;20608;-79
2023/03/25 09:01:43;;;;;;;2.60;2.30;;;13.20;99.90;;;;;;5073267;28;20506;-81
2023/03/25 09:04:10;;;;;;;2.30;2.20;;;13.10;99.90;;;;;;5073264;28;20181;-79
2023/03/25 09:06:36;;;;;;;2.17;2.07;;;13.10;99.90;;;;;;5073662;28;20185;-80
2023/03/25 09:09:04;;;;;;;2.60;2.40;;;13.10;99.90;;;;;;5074243;28;20265;-81
2023/03/25 09:11:31;;;;;;;1.80;1.70;;;13.00;99.90;;;;;;5073371;28;20175;-78
2023/03/25 09:13:56;;;;;;;1.90;1.80;;;13.10;99.90;;;;;;5073097;28;20214;-79
2023/03/25 09:16:22;;;;;;;1.80;1.70;;;13.10;99.90;;;;;;5072557;28;20686;-78
2023/03/25 09:18:48;;;;;;;1.87;1.70;;;13.00;99.90;;;;;;5075041;28;20252;-81
2023/03/25 09:21:14;;;;;;;2.43;1.80;;;13.00;99.90;;;;;;5072860;28;20273;-78
2023/03/25 09:23:40;;;;;;;1.70;1.60;;;13.00;99.90;;;;;;5072251;28;20173;-82
2023/03/25 09:26:06;;;;;;;1.70;1.60;;;12.90;99.90;;;;;;5091387;28;20179;-80
2023/03/25 09:28:31;;;;;;;1.60;1.50;;;12.90;99.90;;;;;;5093150;28;20262;-80
2023/03/25 09:30:57;;;;;;;1.90;1.70;;;13.00;99.90;;;;;;5093010;28;20288;-79
2023/03/25 09:33:26;;;;;;;1.53;1.40;;;12.90;99.90;;;;;;5095631;28;20666;-78
2023/03/25 09:35:52;;;;;;;1.87;1.77;;;12.90;99.90;;;;;;5113538;28;20478;-78
2023/03/25 09:38:18;;;;;;;1.47;1.37;;;12.80;99.90;;;;;;5095133;28;20703;-79
2023/03/25 09:40:44;;;;;;;1.20;1.20;;;12.70;99.90;;;;;;5114196;28;20244;-78
2023/03/25 09:43:36;;;;;;;1.47;1.37;;;12.70;99.90;;;;;;5115604;28;20504;-79
2023/03/25 09:46:03;;;;;;;1.10;1.10;;;12.60;99.90;;;;;;5115619;28;20218;-80
2023/03/25 09:48:40;;;;;;;1.70;1.60;;;12.60;99.90;;;;;;5119226;28;20649;-79
2023/03/25 09:51:14;;;;;;;2.57;1.20;;;12.60;99.90;;;;;;5110636;28;20230;-77
2023/03/25 09:54:28;;;;;;;3.63;1.50;;;12.60;99.90;;;;;;5099349;28;20175;-79
2023/03/25 09:56:58;;;;;;;2.20;1.60;;;12.60;99.90;;;;;;5053084;28;20292;-78
2023/03/25 09:59:45;;;;;;;1.50;1.40;;;12.50;99.90;;;;;;5055393;28;20236;-81
2023/03/25 10:02:52;;;;;;;1.87;1.77;;;12.60;99.90;;;;;;5075471;28;20195;-79
2023/03/25 10:05:33;;;;;;;1.63;1.47;;;12.50;99.90;;;;;;5074809;28;20984;-78
2023/03/25 10:08:08;;;;;;;1.50;1.40;;;12.50;99.90;;;;;;5072457;28;20171;-80
2023/03/25 10:10:54;;;;;;;1.47;1.37;;;12.60;99.90;;;;;;5072629;28;20296;-79
2023/03/25 10:14:14;;;;;;;1.30;1.20;;;12.50;99.90;;;;;;5072473;28;20585;-79
2023/03/25 10:16:40;;;;;;;1.03;1.03;;;12.50;99.90;;;;;;4954484;28;20654;-81
2023/03/25 10:19:49;;;;;;;1.00;1.00;;;12.50;99.90;;;;;;4971194;28;20218;-80
2023/03/25 10:22:20;;;;;;;1.30;1.20;;;12.50;99.90;;;;;;4967558;28;20220;-79
2023/03/25 10:24:55;;;;;;;2.20;0.83;;;12.40;99.90;;;;;;4990450;28;20211;-80
2023/03/25 10:27:40;;;;;;;2.33;1.20;;;12.40;99.90;;;;;;4991460;28;20167;-80
2023/03/25 10:30:08;;;;;;;2.17;0.90;;;12.40;99.90;;;;;;4990577;28;20182;-80
2023/03/25 10:32:45;;;;;;;1.23;1.23;;;12.40;99.90;;;;;;4989815;28;20210;-78
2023/03/25 10:35:35;;;;;;;1.30;1.20;;;12.40;99.90;;;;;;4989268;28;20178;-80
2023/03/25 10:38:19;;;;;;;2.53;1.30;;;12.40;99.90;;;;;;4989082;28;20231;-80
2023/03/25 10:40:51;;;;;;;2.37;1.20;;;12.40;99.90;;;;;;4972981;28;20245;-79
2023/03/25 10:43:31;;;;;;;0.90;0.90;;;12.40;99.90;;;;;;4970541;28;20570;-80
2023/03/25 10:46:15;;;;;;;1.00;1.00;;;12.50;99.90;;;;;;5001167;28;20230;-80
2023/03/25 10:48:41;;;;;;;1.23;0.97;;;12.60;99.90;;;;;;5009854;28;20173;-79
2023/03/25 10:51:10;;;;;;;1.27;1.20;;;12.70;99.90;;;;;;5066258;28;20187;-79
2023/03/25 10:53:38;;;;;;;1.07;0.90;;;12.70;99.90;;;;;;5094041;28;20162;-80
2023/03/25 10:56:14;;;;;;;1.00;1.00;;;12.70;99.90;;;;;;5092115;28;20194;-80
2023/03/25 10:58:44;;;;;;;0.80;0.80;;;12.90;99.90;;;;;;5091938;28;20543;-79
2023/03/25 11:01:16;;;;;;;1.00;0.90;;;13.00;99.90;;;;;;5092035;28;20262;-80
2023/03/25 11:03:44;;;;;;;1.00;1.00;;;13.30;99.90;;;;;;5092291;28;20173;-78
2023/03/25 11:06:32;;;;;;;1.30;1.20;;;13.40;99.90;;;;;;5091808;28;20166;-80
2023/03/25 11:09:24;;;;;;;0.97;0.70;;;13.50;99.90;;;;;;5092158;28;20498;-81
2023/03/25 11:11:52;;;;;;;1.17;1.07;;;13.60;99.90;;;;;;5092080;28;20242;-77
2023/03/25 11:14:24;;;;;;;3.13;0.90;;;13.70;99.90;;;;;;5092109;28;20569;-80
2023/03/25 11:17:04;;;;;;;1.07;0.67;;;13.70;99.90;;;;;;5091968;28;20589;-80
2023/03/25 11:19:51;;;;;;;0.73;0.70;;;13.70;99.90;;;;;;5090329;28;20617;-79
2023/03/25 11:22:31;;;;;;;0.70;0.70;;;13.70;99.90;;;;;;5092068;28;20573;-79
2023/03/25 11:25:28;;;;;;;1.10;0.67;;;13.70;99.90;;;;;;5091681;28;20158;-78
2023/03/25 11:28:26;;;;;;;1.10;0.90;;;13.60;99.90;;;;;;5093454;28;20163;-80
2023/03/25 11:31:11;;;;;;;0.60;0.60;;;13.60;99.90;;;;;;5102590;28;20285;-81
2023/03/25 11:33:37;;;;;;;1.83;0.60;;;13.80;99.90;;;;;;5092646;28;20178;-80
2023/03/25 11:36:31;;;;;;;2.50;0.90;;;13.80;99.90;;;;;;5092350;28;20166;-80
2023/03/25 11:39:16;;;;;;;0.57;0.57;;;13.70;99.90;;;;;;5089832;28;20640;-80
2023/03/25 11:41:41;;;;;;;0.87;0.83;;;13.80;99.90;;;;;;5100223;28;20162;-78
2023/03/25 11:44:31;;;;;;;0.73;0.70;;;13.70;99.90;;;;;;5111123;28;20202;-79
2023/03/25 11:47:06;;;;;;;0.53;0.53;;;13.60;99.90;;;;;;5110507;28;20230;-79
2023/03/25 11:49:37;;;;;;;0.50;0.50;;;13.60;99.90;;;;;;5101731;28;20182;-79
2023/03/25 11:52:11;;;;;;;0.80;0.70;;;13.60;99.90;;;;;;5097372;28;20159;-79
2023/03/25 11:54:38;;;;;;;0.57;0.57;;;13.70;99.90;;;;;;5097246;28;20206;-78
2023/03/25 11:57:11;;;;;;;2.00;0.70;;;13.70;99.90;;;;;;5095261;28;20702;-79
2023/03/25 11:59:44;;;;;;;0.70;0.70;;;13.70;99.90;;;;;;5076507;28;20226;-78
2023/03/25 12:02:36;;;;;;;0.93;0.70;;;13.80;99.90;;;;;;5095156;28;20189;-79
2023/03/25 12:05:04;;;;;;;3.43;0.67;;;13.90;99.90;;;;;;5083970;28;20772;-78
2023/03/25 12:07:43;;;;;;;3.90;0.70;;;14.00;99.90;;;;;;5094969;28;20174;-80
2023/03/25 12:10:19;;;;;;;0.77;0.63;;;14.00;99.90;;;;;;5094690;28;20165;-81
2023/03/25 12:12:51;;;;;;;0.60;0.60;;;14.10;99.90;;;;;;5094810;28;20150;-78
2023/03/25 12:15:36;;;;;;;0.60;0.60;;;14.30;99.90;;;;;;5094777;28;20166;-82
2023/03/25 12:18:11;;;;;;;0.70;0.70;;;14.40;99.90;;;;;;5095807;28;20169;-79
2023/03/25 12:21:05;;;;;;;0.60;0.60;;;14.40;99.80;;;;;;5095881;28;20565;-78
2023/03/25 12:23:57;;;;;;;1.07;0.50;;;14.50;99.90;;;;;;5095847;28;20163;-83
2023/03/25 12:26:54;;;;;;;1.23;0.70;;;14.50;99.80;;;;;;5095241;28;20179;-79
2023/03/25 12:29:35;;;;;;;0.90;0.70;;;14.60;99.60;;;;;;5081511;28;20193;-80
2023/03/25 12:32:17;;;;;;;1.17;0.53;;;14.60;99.90;;;;;;5094582;28;20170;-80
2023/03/25 12:35:24;;;;;;;0.50;0.50;;;14.70;99.90;;;;;;5094216;28;20224;-79
2023/03/25 12:38:09;;;;;;;0.60;0.60;;;14.70;99.90;;;;;;4992363;28;20216;-80
2023/03/25 12:40:41;;;;;;;0.70;0.70;;;14.60;98.70;;;;;;4992314;28;20721;-78
2023/03/25 12:43:32;;;;;;;1.13;1.00;;;14.50;99.50;;;;;;4992398;28;20530;-81
2023/03/25 12:46:16;;;;;;;0.90;0.90;;;14.50;99.20;;;;;;5024606;28;20307;-80
2023/03/25 12:49:05;;;;;;;0.57;0.57;;;14.60;98.80;;;;;;5031596;28;20183;-79
2023/03/25 12:52:09;;;;;;;1.03;0.73;;;14.50;98.50;;;;;;5031654;28;20528;-79
2023/03/25 12:54:50;;;;;;;0.70;0.67;;;14.60;98.70;;;;;;5031713;28;20722;-79
2023/03/25 12:57:45;;;;;;;0.70;0.70;;;14.80;99.00;;;;;;5031533;28;20275;-79
2023/03/25 13:00:27;;;;;;;0.97;0.77;;;15.00;98.10;;;;;;5031137;28;20334;-79
2023/03/25 13:03:07;;;;;;;1.23;0.60;;;15.10;98.90;;;;;;5031583;28;21008;-79
2023/03/25 13:05:51;;;;;;;0.97;0.70;;;15.20;99.40;;;;;;5014670;28;20191;-80
2023/03/25 13:08:55;;;;;;;2.07;1.00;;;15.30;98.30;;;;;;5031419;28;20242;-78
2023/03/25 13:11:44;;;;;;;1.83;0.70;;;15.30;98.20;;;;;;5056313;28;20174;-77
2023/03/25 13:14:36;;;;;;;0.70;0.70;;;15.30;97.60;;;;;;5114464;28;20603;-78
2023/03/25 13:17:07;;;;;;;1.30;1.20;;;15.10;96.90;;;;;;5113757;28;20225;-79